createdAt,value
2023-03-13T00:00:33.073Z,6.30
2023-03-13T00:01:33.084Z,6.70
2023-03-13T00:02:33.123Z,6.50
2023-03-13T00:03:33.042Z,6.30
2023-03-13T00:04:33.114Z,6.50
2023-03-13T00:05:33.047Z,6.40
2023-03-13T00:06:33.053Z,6.70
2023-03-13T00:07:33.028Z,6.20
2023-03-13T00:08:33.032Z,6.10
2023-03-13T00:09:33.024Z,6.50
2023-03-13T00:10:33.013Z,6.30
2023-03-13T00:11:32.970Z,6.70
2023-03-13T00:12:33.020Z,6.50
2023-03-13T00:13:32.932Z,6.10
2023-03-13T00:14:33.490Z,6.50
2023-03-13T00:15:32.926Z,6.60
2023-03-13T00:16:32.956Z,6.60
2023-03-13T00:17:32.883Z,6.10
2023-03-13T00:18:32.907Z,6.30
2023-03-13T00:19:32.884Z,6.20
2023-03-13T00:20:32.846Z,6.00
2023-03-13T00:21:32.875Z,5.60
2023-03-13T00:22:32.845Z,6.40
2023-03-13T00:23:32.833Z,6.00
2023-03-13T00:24:32.838Z,6.40
2023-03-13T00:25:32.778Z,6.20
2023-03-13T00:26:32.776Z,5.70
2023-03-13T00:27:32.775Z,5.70
2023-03-13T00:28:32.952Z,5.80
2023-03-13T00:29:32.791Z,6.10
2023-03-13T00:30:32.810Z,6.40
2023-03-13T00:31:32.798Z,6.10
2023-03-13T00:32:32.831Z,5.90
2023-03-13T00:33:32.678Z,6.20
2023-03-13T00:34:32.765Z,6.10
2023-03-13T00:35:32.674Z,6.10
2023-03-13T00:36:32.707Z,5.90
2023-03-13T00:37:32.685Z,5.90
2023-03-13T00:38:32.648Z,5.80
2023-03-13T00:39:32.641Z,5.70
2023-03-13T00:40:32.608Z,6.20
2023-03-13T00:41:32.638Z,6.00
2023-03-13T00:42:32.634Z,5.80
2023-03-13T00:43:32.567Z,5.70
2023-03-13T00:44:32.608Z,5.90
2023-03-13T00:45:32.545Z,6.30
2023-03-13T00:46:32.602Z,5.70
2023-03-13T00:47:32.532Z,5.90
2023-03-13T00:48:32.520Z,5.90
2023-03-13T00:49:32.522Z,6.00
2023-03-13T00:50:32.492Z,6.00
2023-03-13T00:51:32.477Z,5.80
2023-03-13T00:52:32.522Z,6.40
2023-03-13T00:53:32.488Z,6.30
2023-03-13T00:54:32.492Z,5.60
2023-03-13T00:55:32.491Z,6.20
2023-03-13T00:56:32.417Z,6.60
2023-03-13T00:57:32.407Z,6.90
2023-03-13T00:58:32.400Z,6.70
2023-03-13T00:59:32.405Z,6.40
2023-03-13T01:00:32.388Z,7.10
2023-03-13T01:01:32.404Z,6.00
2023-03-13T01:02:32.587Z,6.10
2023-03-13T01:03:32.390Z,6.70
2023-03-13T01:04:32.350Z,5.80
2023-03-13T01:05:32.317Z,6.30
2023-03-13T01:06:32.340Z,6.60
2023-03-13T01:07:32.293Z,6.40
2023-03-13T01:08:32.286Z,6.30
2023-03-13T01:09:32.307Z,6.60
2023-03-13T01:10:32.268Z,6.10
2023-03-13T01:11:32.251Z,6.70
2023-03-13T01:12:32.256Z,6.50
2023-03-13T01:13:32.241Z,7.10
2023-03-13T01:14:32.247Z,6.10
2023-03-13T01:15:32.280Z,5.90
2023-03-13T01:16:32.222Z,6.00
2023-03-13T01:17:32.190Z,6.90
2023-03-13T01:18:32.181Z,6.20
2023-03-13T01:19:32.189Z,5.90
2023-03-13T01:20:32.151Z,6.60
2023-03-13T01:21:32.147Z,6.70
2023-03-13T01:22:32.140Z,6.90
2023-03-13T01:23:32.125Z,6.10
2023-03-13T01:24:32.170Z,6.60
2023-03-13T01:25:32.101Z,6.40
2023-03-13T01:26:32.091Z,6.30
2023-03-13T01:27:32.105Z,6.00
2023-03-13T01:28:32.082Z,6.30
2023-03-13T01:29:32.093Z,6.30
2023-03-13T01:30:32.044Z,6.70
2023-03-13T01:31:32.138Z,6.60
2023-03-13T01:32:32.072Z,6.80
2023-03-13T01:33:32.012Z,6.20
2023-03-13T01:34:32.029Z,6.50
2023-03-13T01:35:32.054Z,5.80
2023-03-13T01:36:31.989Z,6.10
2023-03-13T01:37:31.968Z,6.10
2023-03-13T01:38:31.951Z,6.00
2023-03-13T01:39:31.943Z,6.20
2023-03-13T01:40:31.954Z,6.40
2023-03-13T01:41:31.924Z,6.30
2023-03-13T01:42:31.903Z,6.40
2023-03-13T01:43:31.897Z,6.90
2023-03-13T01:44:31.880Z,6.00
2023-03-13T01:45:31.870Z,6.30
2023-03-13T01:46:31.937Z,7.20
2023-03-13T01:47:31.850Z,5.80
2023-03-13T01:48:31.838Z,6.70
2023-03-13T01:49:31.826Z,6.30
2023-03-13T01:50:31.812Z,6.10
2023-03-13T01:51:31.844Z,5.90
2023-03-13T01:52:31.792Z,6.60
2023-03-13T01:53:31.789Z,6.10
2023-03-13T01:54:31.769Z,6.40
2023-03-13T01:55:31.758Z,6.20
2023-03-13T01:56:31.758Z,6.20
2023-03-13T01:57:31.765Z,6.70
2023-03-13T01:58:31.733Z,6.60
2023-03-13T01:59:31.739Z,6.50
2023-03-13T02:00:31.699Z,6.50
2023-03-13T02:01:31.710Z,6.40
2023-03-13T02:02:31.709Z,6.20
2023-03-13T02:03:31.692Z,6.40
2023-03-13T02:04:31.664Z,6.20
2023-03-13T02:05:31.648Z,6.60
2023-03-13T02:06:31.634Z,6.10
2023-03-13T02:07:31.667Z,6.30
2023-03-13T02:08:31.607Z,6.30
2023-03-13T02:09:31.605Z,6.60
2023-03-13T02:10:31.590Z,6.40
2023-03-13T02:11:31.576Z,6.40
2023-03-13T02:12:31.585Z,6.30
2023-03-13T02:13:31.585Z,6.90
2023-03-13T02:14:31.540Z,6.90
2023-03-13T02:15:31.557Z,6.50
2023-03-13T02:16:31.620Z,6.60
2023-03-13T02:17:31.540Z,6.50
2023-03-13T02:18:31.494Z,6.80
2023-03-13T02:19:31.491Z,6.90
2023-03-13T02:20:31.474Z,6.50
2023-03-13T02:21:31.465Z,6.90
2023-03-13T02:22:31.500Z,7.10
2023-03-13T02:23:31.464Z,6.80
2023-03-13T02:24:31.424Z,6.60
2023-03-13T02:25:31.419Z,6.40
2023-03-13T02:26:31.409Z,7.00
2023-03-13T02:27:31.421Z,6.80
2023-03-13T02:28:31.379Z,7.50
2023-03-13T02:29:31.373Z,6.90
2023-03-13T02:30:31.353Z,6.80
2023-03-13T02:31:31.469Z,6.40
2023-03-13T02:32:31.401Z,6.60
2023-03-13T02:33:31.805Z,7.20
2023-03-13T02:34:31.307Z,7.00
2023-03-13T02:35:31.360Z,7.10
2023-03-13T02:36:31.294Z,6.70
2023-03-13T02:37:31.319Z,6.60
2023-03-13T02:38:31.272Z,6.70
2023-03-13T02:39:31.292Z,7.70
2023-03-13T02:40:31.265Z,7.70
2023-03-13T02:41:31.235Z,7.40
2023-03-13T02:42:31.219Z,7.50
2023-03-13T02:43:31.266Z,7.40
2023-03-13T02:44:31.196Z,7.00
2023-03-13T02:45:31.212Z,7.20
2023-03-13T02:46:31.249Z,7.40
2023-03-13T02:47:31.175Z,7.50
2023-03-13T02:48:31.161Z,7.80
2023-03-13T02:49:31.155Z,7.30
2023-03-13T02:50:31.155Z,7.70
2023-03-13T02:51:31.136Z,8.00
2023-03-13T02:52:31.118Z,7.20
2023-03-13T02:53:31.108Z,7.40
2023-03-13T02:54:31.097Z,7.60
2023-03-13T02:55:31.100Z,7.90
2023-03-13T02:56:31.067Z,7.20
2023-03-13T02:57:31.066Z,7.90
2023-03-13T02:58:33.619Z,7.80
2023-03-13T02:59:31.039Z,7.90
2023-03-13T03:00:31.116Z,7.80
2023-03-13T03:01:31.051Z,8.20
2023-03-13T03:02:31.016Z,7.70
2023-03-13T03:03:31.024Z,8.20
2023-03-13T03:04:30.975Z,8.10
2023-03-13T03:05:30.970Z,8.20
2023-03-13T03:06:30.957Z,8.00
2023-03-13T03:07:30.972Z,8.40
2023-03-13T03:08:30.935Z,7.60
2023-03-13T03:09:30.954Z,7.40
2023-03-13T03:10:30.907Z,7.20
2023-03-13T03:11:30.921Z,8.90
2023-03-13T03:12:30.912Z,8.40
2023-03-13T03:13:30.881Z,8.50
2023-03-13T03:14:30.867Z,8.80
2023-03-13T03:15:30.875Z,8.10
2023-03-13T03:16:30.882Z,9.00
2023-03-13T03:17:30.855Z,8.70
2023-03-13T03:18:32.260Z,8.60
2023-03-13T03:19:30.813Z,9.00
2023-03-13T03:20:30.862Z,8.10
2023-03-13T03:21:30.787Z,8.60
2023-03-13T03:22:30.777Z,8.00
2023-03-13T03:23:30.797Z,8.20
2023-03-13T03:24:30.741Z,8.10
2023-03-13T03:25:30.736Z,8.60
2023-03-13T03:26:30.733Z,9.10
2023-03-13T03:27:30.721Z,8.50
2023-03-13T03:28:30.732Z,8.40
2023-03-13T03:29:30.683Z,9.00
2023-03-13T03:30:30.688Z,8.80
2023-03-13T03:31:30.700Z,9.10
2023-03-13T03:32:30.727Z,9.40
2023-03-13T03:33:30.664Z,9.50
2023-03-13T03:34:30.689Z,9.00
2023-03-13T03:35:30.684Z,9.10
2023-03-13T03:36:30.605Z,9.10
2023-03-13T03:37:30.601Z,9.20
2023-03-13T03:38:30.587Z,9.10
2023-03-13T03:39:30.568Z,9.10
2023-03-13T03:40:30.585Z,9.00
2023-03-13T03:41:30.550Z,9.30
2023-03-13T03:42:30.539Z,9.40
2023-03-13T03:43:30.525Z,9.40
2023-03-13T03:44:30.526Z,9.30
2023-03-13T03:45:30.570Z,9.90
2023-03-13T03:46:30.498Z,9.80
2023-03-13T03:47:30.545Z,9.80
2023-03-13T03:48:30.504Z,9.50
2023-03-13T03:49:30.453Z,10.00
2023-03-13T03:50:30.452Z,10.00
2023-03-13T03:51:30.496Z,10.20
2023-03-13T03:52:30.430Z,10.20
2023-03-13T03:53:30.414Z,10.40
2023-03-13T03:54:30.409Z,10.70
2023-03-13T03:55:30.391Z,10.30
2023-03-13T03:56:30.383Z,11.40
2023-03-13T03:57:30.396Z,11.20
2023-03-13T03:58:30.369Z,11.60
2023-03-13T03:59:30.361Z,11.20
2023-03-13T04:00:30.340Z,10.60
2023-03-13T04:01:30.336Z,10.90
2023-03-13T04:02:30.454Z,11.10
2023-03-13T04:03:30.426Z,12.30
2023-03-13T04:04:30.307Z,11.90
2023-03-13T04:05:30.283Z,11.00
2023-03-13T04:06:30.278Z,11.20
2023-03-13T04:07:30.255Z,11.70
2023-03-13T04:08:30.285Z,11.30
2023-03-13T04:09:32.057Z,11.30
2023-03-13T04:10:30.230Z,12.10
2023-03-13T04:11:30.225Z,11.80
2023-03-13T04:12:30.214Z,12.30
2023-03-13T04:13:30.192Z,12.30
2023-03-13T04:14:30.214Z,12.90
2023-03-13T04:15:30.167Z,12.80
2023-03-13T04:16:30.186Z,12.70
2023-03-13T04:17:30.192Z,12.60
2023-03-13T04:18:30.138Z,12.60
2023-03-13T04:19:30.129Z,12.90
2023-03-13T04:20:30.143Z,13.20
2023-03-13T04:21:30.105Z,13.20
2023-03-13T04:22:30.096Z,13.90
2023-03-13T04:23:30.074Z,13.80
2023-03-13T04:24:30.074Z,13.60
2023-03-13T04:25:30.093Z,15.50
2023-03-13T04:26:30.065Z,14.20
2023-03-13T04:27:30.036Z,14.30
2023-03-13T04:28:30.036Z,15.10
2023-03-13T04:29:30.006Z,14.40
2023-03-13T04:30:30.058Z,15.70
2023-03-13T04:31:29.984Z,15.60
2023-03-13T04:32:30.014Z,15.80
2023-03-13T04:33:29.964Z,14.10
2023-03-13T04:34:29.955Z,14.00
2023-03-13T04:35:30.076Z,15.90
2023-03-13T04:36:29.931Z,16.30
2023-03-13T04:37:29.917Z,16.30
2023-03-13T04:38:29.924Z,16.60
2023-03-13T04:39:31.990Z,16.60
2023-03-13T04:40:29.890Z,16.60
2023-03-13T04:41:29.903Z,16.30
2023-03-13T04:42:29.885Z,16.80
2023-03-13T04:43:29.858Z,16.50
2023-03-13T04:44:29.848Z,16.80
2023-03-13T04:45:29.827Z,16.50
2023-03-13T04:46:29.835Z,17.60
2023-03-13T04:47:29.825Z,17.70
2023-03-13T04:48:29.800Z,18.40
2023-03-13T04:49:29.793Z,17.60
2023-03-13T04:50:29.774Z,17.00
2023-03-13T04:51:29.762Z,18.20
2023-03-13T04:52:29.783Z,19.20
2023-03-13T04:53:29.738Z,19.50
2023-03-13T04:54:29.736Z,19.60
2023-03-13T04:55:29.738Z,20.40
2023-03-13T04:56:42.643Z,20.20
2023-03-13T04:57:29.720Z,20.00
2023-03-13T04:58:29.714Z,20.20
2023-03-13T04:59:29.663Z,20.10
2023-03-13T05:00:29.668Z,21.80
2023-03-13T05:01:29.713Z,20.90
2023-03-13T05:02:29.642Z,22.70
2023-03-13T05:03:29.624Z,22.20
2023-03-13T05:04:29.633Z,22.50
2023-03-13T05:05:29.644Z,22.20
2023-03-13T05:06:29.602Z,23.50
2023-03-13T05:07:29.597Z,23.70
2023-03-13T05:08:29.582Z,24.50
2023-03-13T05:09:29.587Z,25.00
2023-03-13T05:10:29.566Z,25.00
2023-03-13T05:11:29.542Z,25.10
2023-03-13T05:12:29.536Z,24.70
2023-03-13T05:13:29.513Z,25.80
2023-03-13T05:14:29.513Z,24.70
2023-03-13T05:15:29.529Z,25.70
2023-03-13T05:16:29.481Z,24.80
2023-03-13T05:17:29.464Z,25.10
2023-03-13T05:18:29.474Z,25.90
2023-03-13T05:19:29.445Z,26.90
2023-03-13T05:20:29.470Z,27.40
2023-03-13T05:21:29.425Z,27.40
2023-03-13T05:22:29.427Z,27.30
2023-03-13T05:23:29.396Z,29.00
2023-03-13T05:24:29.402Z,29.30
2023-03-13T05:25:29.374Z,28.40
2023-03-13T05:26:29.394Z,30.30
2023-03-13T05:27:29.353Z,30.80
2023-03-13T05:28:29.346Z,31.30
2023-03-13T05:29:29.336Z,31.60
2023-03-13T05:30:29.321Z,31.80
2023-03-13T05:31:29.481Z,31.90
2023-03-13T05:32:29.379Z,31.70
2023-03-13T05:33:29.287Z,31.80
2023-03-13T05:34:29.373Z,32.60
2023-03-13T05:35:29.268Z,33.20
2023-03-13T05:36:29.258Z,31.50
2023-03-13T05:37:29.469Z,32.80
2023-03-13T05:38:29.238Z,32.80
2023-03-13T05:39:29.221Z,34.00
2023-03-13T05:40:29.209Z,32.90
2023-03-13T05:41:29.206Z,33.10
2023-03-13T05:42:29.191Z,34.20
2023-03-13T05:43:29.209Z,35.40
2023-03-13T05:44:29.164Z,34.80
2023-03-13T05:45:29.153Z,34.80
2023-03-13T05:46:29.192Z,35.00
2023-03-13T05:47:29.137Z,36.30
2023-03-13T05:48:29.151Z,35.40
2023-03-13T05:49:29.108Z,37.30
2023-03-13T05:50:29.097Z,35.90
2023-03-13T05:51:29.085Z,37.20
2023-03-13T05:52:29.077Z,35.40
2023-03-13T05:53:29.073Z,36.60
2023-03-13T05:54:29.073Z,36.80
2023-03-13T05:55:29.037Z,36.10
2023-03-13T05:56:29.024Z,35.50
2023-03-13T05:57:29.056Z,34.90
2023-03-13T05:58:29.004Z,35.00
2023-03-13T05:59:28.989Z,35.60
2023-03-13T06:00:29.000Z,33.60
2023-03-13T06:01:28.965Z,32.50
2023-03-13T06:02:28.960Z,33.50
2023-03-13T06:03:29.102Z,32.80
2023-03-13T06:04:29.041Z,32.50
2023-03-13T06:05:28.961Z,32.90
2023-03-13T06:06:28.910Z,31.60
2023-03-13T06:07:28.900Z,30.50
2023-03-13T06:08:28.898Z,29.90
2023-03-13T06:09:28.873Z,30.80
2023-03-13T06:10:28.857Z,31.40
2023-03-13T06:11:28.873Z,31.40
2023-03-13T06:12:28.838Z,30.30
2023-03-13T06:13:28.832Z,29.10
2023-03-13T06:14:28.811Z,26.70
2023-03-13T06:15:28.827Z,29.30
2023-03-13T06:16:28.854Z,29.00
2023-03-13T06:17:28.802Z,25.50
2023-03-13T06:18:28.772Z,26.80
2023-03-13T06:19:28.871Z,25.50
2023-03-13T06:20:28.755Z,25.10
2023-03-13T06:21:28.763Z,24.70
2023-03-13T06:22:28.724Z,22.90
2023-03-13T06:23:28.749Z,22.70
2023-03-13T06:24:28.698Z,22.80
2023-03-13T06:25:28.708Z,23.80
2023-03-13T06:26:28.733Z,23.30
2023-03-13T06:27:28.670Z,22.40
2023-03-13T06:28:28.674Z,23.50
2023-03-13T06:29:28.644Z,23.40
2023-03-13T06:30:28.636Z,24.90
2023-03-13T06:31:28.643Z,25.60
2023-03-13T06:32:28.820Z,25.70
2023-03-13T06:33:28.657Z,24.70
2023-03-13T06:34:28.587Z,25.70
2023-03-13T06:35:28.596Z,25.40
2023-03-13T06:36:28.610Z,25.10
2023-03-13T06:37:28.550Z,24.40
2023-03-13T06:38:28.588Z,25.50
2023-03-13T06:39:28.534Z,23.60
2023-03-13T06:40:28.528Z,23.90
2023-03-13T06:41:28.507Z,21.40
2023-03-13T06:42:28.507Z,20.60
2023-03-13T06:43:28.538Z,21.50
2023-03-13T06:44:28.615Z,20.80
2023-03-13T06:45:28.472Z,20.50
2023-03-13T06:46:28.498Z,20.10
2023-03-13T06:47:28.445Z,18.80
2023-03-13T06:48:28.451Z,19.50
2023-03-13T06:49:28.458Z,17.70
2023-03-13T06:50:28.399Z,18.80
2023-03-13T06:51:28.395Z,17.10
2023-03-13T06:52:41.212Z,18.60
2023-03-13T06:53:28.377Z,18.30
2023-03-13T06:54:28.352Z,18.20
2023-03-13T06:55:28.404Z,16.60
2023-03-13T06:56:28.344Z,18.00
2023-03-13T06:57:28.435Z,18.40
2023-03-13T06:58:32.637Z,17.50
2023-03-13T06:59:28.306Z,18.00
2023-03-13T07:00:28.576Z,17.40
2023-03-13T07:01:28.499Z,17.70
2023-03-13T07:02:28.330Z,16.80
2023-03-13T07:03:28.380Z,17.90
2023-03-13T07:04:28.271Z,16.90
2023-03-13T07:05:29.099Z,16.00
2023-03-13T07:06:28.253Z,15.40
2023-03-13T07:07:32.296Z,15.20
2023-03-13T07:08:28.200Z,16.30
2023-03-13T07:09:28.558Z,15.10
2023-03-13T07:10:28.240Z,14.00
2023-03-13T07:11:28.195Z,14.40
2023-03-13T07:12:28.180Z,14.20
2023-03-13T07:13:28.232Z,13.50
2023-03-13T07:14:28.159Z,13.60
2023-03-13T07:15:28.178Z,11.90
2023-03-13T07:16:28.219Z,12.70
2023-03-13T07:17:28.231Z,13.20
2023-03-13T07:18:28.138Z,12.70
2023-03-13T07:19:28.105Z,11.30
2023-03-13T07:20:28.132Z,12.10
2023-03-13T07:21:28.090Z,11.30
2023-03-13T07:22:28.041Z,12.00
2023-03-13T07:23:28.038Z,10.40
2023-03-13T07:24:28.059Z,10.00
2023-03-13T07:25:28.097Z,9.40
2023-03-13T07:26:28.059Z,9.70
2023-03-13T07:27:28.067Z,9.20
2023-03-13T07:28:27.990Z,9.40
2023-03-13T07:29:27.974Z,8.80
2023-03-13T07:30:27.951Z,8.10
2023-03-13T07:31:28.025Z,8.20
2023-03-13T07:32:27.946Z,7.90
2023-03-13T07:33:27.944Z,7.70
2023-03-13T07:34:27.920Z,7.20
2023-03-13T07:35:27.898Z,6.70
2023-03-13T07:36:27.953Z,6.50
2023-03-13T07:37:27.883Z,7.00
2023-03-13T07:38:27.864Z,7.30
2023-03-13T07:39:27.876Z,6.80
2023-03-13T07:40:27.907Z,6.40
2023-03-13T07:41:27.838Z,6.10
2023-03-13T07:42:27.836Z,5.80
2023-03-13T07:43:27.820Z,6.10
2023-03-13T07:44:27.823Z,5.90
2023-03-13T07:45:27.847Z,5.30
2023-03-13T07:46:27.776Z,5.30
2023-03-13T07:47:27.774Z,5.00
2023-03-13T07:48:27.793Z,5.40
2023-03-13T07:49:27.744Z,5.70
2023-03-13T07:50:27.880Z,5.50
2023-03-13T07:51:42.550Z,5.10
2023-03-13T07:52:27.707Z,4.90
2023-03-13T07:53:27.724Z,5.20
2023-03-13T07:54:27.683Z,5.20
2023-03-13T07:55:27.677Z,5.40
2023-03-13T07:56:27.708Z,5.70
2023-03-13T07:57:27.648Z,5.10
2023-03-13T07:58:27.637Z,5.40
2023-03-13T07:59:27.633Z,5.10
2023-03-13T08:00:27.622Z,5.30
2023-03-13T08:01:30.452Z,5.00
2023-03-13T08:02:27.643Z,4.90
2023-03-13T08:03:27.622Z,5.30
2023-03-13T08:04:27.577Z,5.60
2023-03-13T08:05:27.558Z,5.30
2023-03-13T08:06:27.585Z,4.90
2023-03-13T08:07:27.553Z,5.10
2023-03-13T08:08:27.526Z,4.90
2023-03-13T08:09:27.518Z,5.20
2023-03-13T08:10:27.531Z,5.10
2023-03-13T08:11:27.520Z,5.00
2023-03-13T08:12:27.497Z,5.20
2023-03-13T08:13:27.528Z,4.80
2023-03-13T08:14:27.451Z,5.30
2023-03-13T08:15:27.444Z,5.20
2023-03-13T08:16:27.508Z,5.80
2023-03-13T08:17:27.423Z,5.20
2023-03-13T08:18:27.432Z,5.80
2023-03-13T08:19:27.465Z,5.40
2023-03-13T08:20:27.393Z,5.50
2023-03-13T08:21:27.409Z,5.80
2023-03-13T08:22:27.361Z,6.20
2023-03-13T08:23:27.352Z,5.30
2023-03-13T08:24:27.357Z,6.00
2023-03-13T08:25:27.329Z,5.90
2023-03-13T08:26:27.429Z,5.70
2023-03-13T08:27:27.317Z,6.20
2023-03-13T08:28:27.312Z,5.70
2023-03-13T08:29:27.286Z,5.70
2023-03-13T08:30:27.376Z,5.80
2023-03-13T08:31:27.281Z,5.80
2023-03-13T08:32:27.313Z,5.50
2023-03-13T08:33:27.244Z,5.40
2023-03-13T08:34:27.275Z,5.30
2023-03-13T08:35:27.247Z,5.40
2023-03-13T08:36:27.228Z,5.00
2023-03-13T08:37:27.202Z,5.10
2023-03-13T08:38:27.186Z,5.30
2023-03-13T08:39:27.179Z,4.90
2023-03-13T08:40:27.163Z,5.30
2023-03-13T08:41:27.178Z,5.00
2023-03-13T08:42:27.148Z,5.30
2023-03-13T08:43:27.134Z,4.70
2023-03-13T08:44:27.113Z,5.10
2023-03-13T08:45:27.108Z,5.40
2023-03-13T08:46:27.136Z,5.10
2023-03-13T08:47:27.086Z,4.60
2023-03-13T08:48:27.079Z,5.00
2023-03-13T08:49:27.085Z,4.60
2023-03-13T08:50:27.049Z,4.70
2023-03-13T08:51:27.050Z,4.90
2023-03-13T08:52:27.079Z,5.10
2023-03-13T08:53:27.030Z,5.20
2023-03-13T08:54:27.016Z,5.10
2023-03-13T08:55:26.999Z,5.00
2023-03-13T08:56:26.992Z,4.60
2023-03-13T08:57:26.978Z,4.90
2023-03-13T08:58:27.007Z,4.70
2023-03-13T08:59:26.956Z,4.90
2023-03-13T09:00:26.942Z,4.60
2023-03-13T09:01:26.938Z,4.90
2023-03-13T09:02:26.966Z,4.50
2023-03-13T09:03:26.990Z,4.40
2023-03-13T09:04:26.920Z,4.30
2023-03-13T09:05:26.899Z,4.40
2023-03-13T09:06:26.894Z,4.50
2023-03-13T09:07:26.879Z,4.50
2023-03-13T09:08:26.856Z,4.30
2023-03-13T09:09:26.890Z,4.40
2023-03-13T09:10:26.844Z,4.00
2023-03-13T09:11:26.838Z,4.30
2023-03-13T09:12:31.215Z,4.10
2023-03-13T09:13:26.834Z,4.10
2023-03-13T09:14:26.791Z,4.60
2023-03-13T09:15:26.811Z,4.30
2023-03-13T09:16:26.772Z,4.00
2023-03-13T09:17:26.761Z,4.30
2023-03-13T09:18:26.808Z,4.00
2023-03-13T09:19:26.766Z,3.70
2023-03-13T09:20:26.726Z,4.40
2023-03-13T09:21:26.747Z,4.00
2023-03-13T09:22:26.696Z,3.90
2023-03-13T09:23:26.700Z,3.90
2023-03-13T09:24:26.672Z,4.10
2023-03-13T09:25:26.674Z,4.20
2023-03-13T09:26:27.719Z,3.80
2023-03-13T09:27:26.687Z,3.70
2023-03-13T09:28:26.658Z,3.70
2023-03-13T09:29:26.624Z,3.70
2023-03-13T09:30:26.616Z,3.40
2023-03-13T09:31:26.655Z,3.90
2023-03-13T09:32:26.618Z,3.50
2023-03-13T09:33:26.608Z,3.50
2023-03-13T09:34:26.561Z,3.40
2023-03-13T09:35:26.554Z,3.40
2023-03-13T09:36:26.620Z,3.40
2023-03-13T09:37:26.540Z,3.60
2023-03-13T09:38:26.518Z,3.20
2023-03-13T09:39:26.530Z,3.50
2023-03-13T09:40:26.507Z,3.50
2023-03-13T09:41:26.488Z,3.40
2023-03-13T09:42:26.466Z,3.50
2023-03-13T09:43:26.463Z,3.50
2023-03-13T09:44:26.483Z,3.40
2023-03-13T09:45:26.441Z,3.20
2023-03-13T09:46:26.638Z,3.70
2023-03-13T09:47:26.417Z,3.50
2023-03-13T09:48:26.400Z,3.40
2023-03-13T09:49:26.411Z,3.20
2023-03-13T09:50:26.403Z,3.30
2023-03-13T09:51:26.367Z,3.70
2023-03-13T09:52:26.364Z,3.40
2023-03-13T09:53:26.336Z,3.50
2023-03-13T09:54:26.335Z,3.30
2023-03-13T09:55:26.316Z,3.10
2023-03-13T09:56:26.365Z,3.40
2023-03-13T09:57:26.295Z,3.40
2023-03-13T09:58:26.286Z,3.10
2023-03-13T09:59:26.266Z,3.30
2023-03-13T10:00:26.263Z,3.10
2023-03-13T10:01:26.366Z,3.20
2023-03-13T10:02:26.241Z,3.50
2023-03-13T10:03:26.221Z,3.50
2023-03-13T10:04:26.234Z,3.10
2023-03-13T10:05:26.215Z,2.90
2023-03-13T10:06:26.197Z,3.40
2023-03-13T10:07:26.205Z,3.00
2023-03-13T10:08:26.180Z,3.00
2023-03-13T10:09:26.150Z,2.80
2023-03-13T10:10:26.144Z,2.80
2023-03-13T10:11:26.132Z,3.10
2023-03-13T10:12:26.137Z,2.70
2023-03-13T10:13:26.136Z,2.60
2023-03-13T10:14:26.099Z,3.20
2023-03-13T10:15:26.079Z,2.90
2023-03-13T10:16:26.141Z,3.00
2023-03-13T10:17:26.070Z,3.30
2023-03-13T10:18:26.091Z,3.00
2023-03-13T10:19:26.035Z,2.80
2023-03-13T10:20:26.042Z,2.80
2023-03-13T10:21:26.226Z,2.90
2023-03-13T10:22:26.004Z,3.10
2023-03-13T10:23:25.994Z,3.00
2023-03-13T10:24:26.007Z,2.70
2023-03-13T10:25:25.963Z,2.70
2023-03-13T10:26:25.972Z,2.70
2023-03-13T10:27:25.941Z,2.70
2023-03-13T10:28:25.940Z,2.30
2023-03-13T10:29:25.925Z,2.70
2023-03-13T10:30:25.958Z,2.50
2023-03-13T10:31:25.972Z,2.40
2023-03-13T10:32:25.913Z,2.30
2023-03-13T10:33:25.874Z,2.60
2023-03-13T10:34:25.872Z,2.50
2023-03-13T10:35:25.866Z,2.50
2023-03-13T10:36:25.885Z,2.20
2023-03-13T10:37:25.838Z,2.50
2023-03-13T10:38:25.859Z,2.60
2023-03-13T10:39:25.805Z,2.40
2023-03-13T10:40:25.814Z,2.50
2023-03-13T10:41:25.790Z,2.50
2023-03-13T10:42:25.812Z,2.80
2023-03-13T10:43:25.762Z,2.50
2023-03-13T10:44:25.784Z,2.70
2023-03-13T10:45:25.748Z,2.80
2023-03-13T10:46:25.776Z,2.90
2023-03-13T10:47:25.796Z,2.60
2023-03-13T10:48:25.724Z,3.00
2023-03-13T10:49:25.711Z,2.80
2023-03-13T10:50:25.688Z,3.10
2023-03-13T10:51:25.673Z,2.90
2023-03-13T10:52:25.668Z,2.90
2023-03-13T10:53:25.682Z,2.80
2023-03-13T10:54:25.659Z,3.10
2023-03-13T10:55:25.633Z,2.80
2023-03-13T10:56:25.623Z,2.70
2023-03-13T10:57:25.606Z,2.60
2023-03-13T10:58:25.596Z,2.60
2023-03-13T10:59:25.617Z,3.00
2023-03-13T11:00:25.576Z,2.70
2023-03-13T11:01:25.567Z,2.60
2023-03-13T11:02:25.680Z,2.70
2023-03-13T11:03:25.719Z,3.00
2023-03-13T11:04:25.535Z,2.70
2023-03-13T11:05:25.547Z,2.90
2023-03-13T11:06:25.505Z,2.90
2023-03-13T11:07:25.498Z,2.50
2023-03-13T11:08:25.532Z,2.60
2023-03-13T11:09:25.480Z,2.50
2023-03-13T11:10:25.471Z,2.80
2023-03-13T11:11:25.471Z,2.80
2023-03-13T11:12:25.440Z,2.50
2023-03-13T11:13:35.964Z,2.70
2023-03-13T11:14:25.434Z,2.70
2023-03-13T11:15:25.471Z,2.50
2023-03-13T11:16:25.441Z,2.40
2023-03-13T11:17:25.410Z,2.70
2023-03-13T11:18:25.371Z,2.40
2023-03-13T11:19:25.356Z,2.60
2023-03-13T11:20:25.348Z,2.30
2023-03-13T11:21:25.340Z,2.70
2023-03-13T11:22:25.381Z,2.20
2023-03-13T11:23:25.333Z,2.30
2023-03-13T11:24:25.306Z,2.60
2023-03-13T11:25:25.297Z,2.30
2023-03-13T11:26:25.282Z,2.20
2023-03-13T11:27:25.294Z,2.40
2023-03-13T11:28:25.255Z,2.00
2023-03-13T11:29:25.327Z,2.20
2023-03-13T11:30:25.258Z,2.00
2023-03-13T11:31:25.301Z,2.00
2023-03-13T11:32:25.236Z,2.00
2023-03-13T11:33:25.213Z,1.80
2023-03-13T11:34:25.193Z,2.20
2023-03-13T11:35:25.224Z,2.00
2023-03-13T11:36:25.169Z,1.90
2023-03-13T11:37:25.146Z,1.90
2023-03-13T11:38:25.145Z,1.70
2023-03-13T11:39:25.133Z,1.80
2023-03-13T11:40:25.118Z,2.00
2023-03-13T11:41:25.144Z,2.10
2023-03-13T11:42:25.097Z,2.10
2023-03-13T11:43:26.118Z,2.00
2023-03-13T11:44:25.128Z,2.10
2023-03-13T11:45:25.139Z,1.90
2023-03-13T11:46:25.185Z,1.70
2023-03-13T11:47:25.504Z,1.90
2023-03-13T11:48:25.026Z,1.70
2023-03-13T11:49:25.015Z,1.60
2023-03-13T11:50:25.011Z,1.80
2023-03-13T11:51:25.066Z,1.70
2023-03-13T11:52:24.990Z,1.80
2023-03-13T11:53:25.069Z,1.70
2023-03-13T11:54:24.968Z,1.80
2023-03-13T11:55:24.957Z,1.90
2023-03-13T11:56:24.940Z,2.10
2023-03-13T11:57:24.916Z,2.00
2023-03-13T11:58:24.919Z,1.90
2023-03-13T11:59:24.936Z,2.00
2023-03-13T12:00:24.898Z,2.20
2023-03-13T12:01:24.883Z,2.10
2023-03-13T12:02:24.932Z,1.80
2023-03-13T12:03:24.885Z,1.70
2023-03-13T12:04:24.845Z,2.00
2023-03-13T12:05:24.981Z,2.20
2023-03-13T12:06:28.240Z,1.80
2023-03-13T12:07:24.815Z,1.80
2023-03-13T12:08:24.807Z,2.10
2023-03-13T12:09:26.658Z,1.70
2023-03-13T12:10:24.778Z,1.70
2023-03-13T12:11:24.804Z,1.60
2023-03-13T12:12:24.765Z,1.70
2023-03-13T12:13:24.736Z,1.80
2023-03-13T12:14:24.733Z,2.10
2023-03-13T12:15:24.733Z,1.80
2023-03-13T12:16:24.719Z,1.70
2023-03-13T12:17:24.788Z,1.90
2023-03-13T12:18:24.693Z,1.80
2023-03-13T12:19:24.678Z,2.00
2023-03-13T12:20:24.679Z,1.90
2023-03-13T12:21:24.648Z,2.00
2023-03-13T12:22:24.644Z,1.70
2023-03-13T12:23:24.752Z,1.70
2023-03-13T12:24:24.621Z,1.90
2023-03-13T12:25:24.719Z,1.60
2023-03-13T12:26:24.634Z,1.90
2023-03-13T12:27:24.580Z,1.50
2023-03-13T12:28:24.676Z,1.20
2023-03-13T12:29:24.605Z,1.30
2023-03-13T12:30:24.576Z,1.60
2023-03-13T12:31:24.544Z,1.40
2023-03-13T12:32:24.623Z,1.50
2023-03-13T12:33:24.657Z,1.40
2023-03-13T12:34:24.531Z,1.70
2023-03-13T12:35:24.535Z,1.60
2023-03-13T12:36:24.553Z,1.60
2023-03-13T12:37:24.476Z,1.70
2023-03-13T12:38:24.471Z,1.60
2023-03-13T12:39:24.477Z,1.40
2023-03-13T12:40:24.453Z,1.60
2023-03-13T12:41:24.459Z,1.70
2023-03-13T12:42:24.424Z,1.70
2023-03-13T12:43:24.405Z,1.80
2023-03-13T12:44:24.402Z,1.70
2023-03-13T12:45:24.475Z,1.60
2023-03-13T12:46:24.489Z,1.80
2023-03-13T12:47:25.892Z,1.70
2023-03-13T12:48:24.429Z,1.90
2023-03-13T12:49:24.344Z,1.80
2023-03-13T12:50:24.363Z,1.80
2023-03-13T12:51:24.334Z,1.80
2023-03-13T12:52:24.344Z,1.80
2023-03-13T12:53:24.337Z,1.60
2023-03-13T12:54:24.298Z,1.70
2023-03-13T12:55:24.284Z,1.60
2023-03-13T12:56:24.276Z,1.60
2023-03-13T12:57:24.289Z,1.50
2023-03-13T12:58:24.286Z,1.50
2023-03-13T12:59:24.239Z,1.50
2023-03-13T13:00:24.237Z,1.40
2023-03-13T13:01:24.274Z,1.70
2023-03-13T13:02:24.204Z,1.50
2023-03-13T13:03:24.191Z,1.40
2023-03-13T13:04:24.287Z,1.30
2023-03-13T13:05:24.165Z,1.40
2023-03-13T13:06:24.159Z,1.60
2023-03-13T13:07:24.163Z,1.40
2023-03-13T13:08:24.132Z,1.30
2023-03-13T13:09:24.150Z,1.30
2023-03-13T13:10:24.136Z,1.30
2023-03-13T13:11:24.485Z,1.40